createdAt,value
2022-12-18T00:01:29.186Z,19.01
2022-12-18T00:03:57.594Z,19.00
2022-12-18T00:06:27.448Z,19.02
2022-12-18T00:08:57.912Z,19.16
2022-12-18T00:11:28.379Z,19.16
2022-12-18T00:13:58.070Z,19.14
2022-12-18T00:16:28.178Z,19.12
2022-12-18T00:18:57.515Z,19.11
2022-12-18T00:21:25.771Z,18.79
2022-12-18T00:23:53.662Z,19.04
2022-12-18T00:26:25.011Z,19.08
2022-12-18T00:29:18.561Z,18.96
2022-12-18T00:31:46.377Z,18.72
2022-12-18T00:34:14.569Z,18.91
2022-12-18T00:36:42.693Z,18.45
2022-12-18T00:39:13.165Z,18.83
2022-12-18T00:42:09.966Z,18.96
2022-12-18T00:44:39.043Z,18.89
2022-12-18T00:47:06.688Z,18.63
2022-12-18T00:49:34.533Z,18.72
2022-12-18T00:52:02.409Z,18.91
2022-12-18T00:54:30.098Z,18.73
2022-12-18T00:56:58.090Z,18.94
2022-12-18T00:59:27.261Z,18.55
2022-12-18T01:01:55.292Z,18.97
2022-12-18T01:04:23.046Z,19.00
2022-12-18T01:06:50.853Z,18.80
2022-12-18T01:09:18.660Z,18.94
2022-12-18T01:11:46.379Z,18.75
2022-12-18T01:14:14.117Z,18.86
2022-12-18T01:16:42.028Z,18.85
2022-12-18T01:19:10.058Z,18.65
2022-12-18T01:21:37.818Z,18.89
2022-12-18T01:24:06.360Z,18.96
2022-12-18T01:26:35.196Z,19.04
2022-12-18T01:29:02.964Z,18.60
2022-12-18T01:31:34.128Z,18.69
2022-12-18T01:34:06.551Z,18.75
2022-12-18T01:36:38.357Z,18.99
2022-12-18T01:39:13.954Z,18.86
2022-12-18T01:42:02.125Z,18.66
2022-12-18T01:44:55.525Z,19.01
2022-12-18T01:47:29.042Z,18.92
2022-12-18T01:49:59.610Z,18.72
2022-12-18T01:52:33.017Z,18.89
2022-12-18T01:55:02.951Z,18.94
2022-12-18T01:57:30.994Z,18.77
2022-12-18T02:00:02.949Z,18.52
2022-12-18T02:02:43.202Z,18.76
2022-12-18T02:05:13.994Z,18.74
2022-12-18T02:08:11.718Z,18.94
2022-12-18T02:11:05.906Z,18.93
2022-12-18T02:13:57.268Z,18.82
2022-12-18T02:16:44.760Z,18.89
2022-12-18T02:19:31.294Z,18.51
2022-12-18T02:22:17.292Z,18.90
2022-12-18T02:25:20.456Z,18.84
2022-12-18T02:27:50.520Z,18.34
2022-12-18T02:30:20.292Z,18.78
2022-12-18T02:32:53.784Z,18.56
2022-12-18T02:35:28.995Z,18.71
2022-12-18T02:38:00.021Z,18.68
2022-12-18T02:40:31.748Z,18.65
2022-12-18T02:43:12.499Z,18.75
2022-12-18T02:45:51.887Z,18.16
2022-12-18T02:48:33.978Z,18.61
2022-12-18T02:51:17.670Z,18.51
2022-12-18T02:53:57.684Z,18.60
2022-12-18T02:56:40.354Z,18.47
2022-12-18T02:59:20.050Z,18.43
2022-12-18T03:02:24.134Z,18.62
2022-12-18T03:05:02.347Z,18.41
2022-12-18T03:08:18.590Z,18.64
2022-12-18T03:10:55.400Z,18.61
2022-12-18T03:13:36.377Z,18.28
2022-12-18T03:16:09.421Z,18.66
2022-12-18T03:18:49.883Z,18.66
2022-12-18T03:21:22.914Z,18.31
2022-12-18T03:23:54.121Z,18.29
2022-12-18T03:26:27.739Z,18.42
2022-12-18T03:29:06.368Z,18.59
2022-12-18T03:31:36.275Z,18.39
2022-12-18T03:34:10.954Z,18.57
2022-12-18T03:36:45.086Z,18.22
2022-12-18T03:39:14.956Z,18.41
2022-12-18T03:42:22.725Z,18.55
2022-12-18T03:45:04.138Z,18.34
2022-12-18T03:47:51.368Z,18.58
2022-12-18T03:50:31.208Z,18.42
2022-12-18T03:53:17.790Z,18.57
2022-12-18T03:55:50.754Z,18.37
2022-12-18T03:58:26.633Z,18.34
2022-12-18T04:01:11.189Z,18.34
2022-12-18T04:03:42.866Z,18.55
2022-12-18T04:06:12.230Z,18.54
2022-12-18T04:08:42.714Z,18.27
2022-12-18T04:11:13.302Z,18.46
2022-12-18T04:13:43.716Z,18.25
2022-12-18T04:16:19.089Z,18.14
2022-12-18T04:18:48.049Z,18.56
2022-12-18T04:21:16.450Z,18.53
2022-12-18T04:23:44.539Z,18.29
2022-12-18T04:26:12.342Z,18.57
2022-12-18T04:29:02.690Z,18.24
2022-12-18T04:31:30.785Z,18.35
2022-12-18T04:33:59.188Z,18.30
2022-12-18T04:36:27.616Z,18.38
2022-12-18T04:38:56.633Z,18.58
2022-12-18T04:41:24.549Z,18.57
2022-12-18T04:43:54.177Z,18.64
2022-12-18T04:46:23.322Z,18.63
2022-12-18T04:48:51.194Z,18.51
2022-12-18T04:51:23.301Z,18.34
2022-12-18T04:53:55.037Z,18.63
2022-12-18T04:56:23.034Z,18.60
2022-12-18T04:58:51.262Z,18.60
2022-12-18T05:01:20.212Z,18.54
2022-12-18T05:03:48.369Z,18.35
2022-12-18T05:06:16.078Z,18.54
2022-12-18T05:08:43.835Z,18.47
2022-12-18T05:11:17.909Z,18.42
2022-12-18T05:13:46.706Z,18.17
2022-12-18T05:16:14.943Z,18.25
2022-12-18T05:18:43.144Z,18.49
2022-12-18T05:21:10.917Z,18.31
2022-12-18T05:23:39.056Z,18.52
2022-12-18T05:26:08.990Z,18.40
2022-12-18T05:28:37.522Z,18.26
2022-12-18T05:31:06.433Z,18.05
2022-12-18T05:33:36.107Z,17.77
2022-12-18T05:36:07.373Z,18.06
2022-12-18T05:38:38.139Z,18.25
2022-12-18T05:41:06.767Z,18.40
2022-12-18T05:43:40.246Z,18.18
2022-12-18T05:46:12.413Z,18.12
2022-12-18T05:48:40.144Z,18.35
2022-12-18T05:51:17.807Z,18.01
2022-12-18T05:53:46.548Z,18.36
2022-12-18T05:56:16.904Z,18.37
2022-12-18T05:58:46.845Z,18.17
2022-12-18T06:01:18.330Z,17.78
2022-12-18T06:03:47.439Z,18.44
2022-12-18T06:06:25.545Z,18.45
2022-12-18T06:08:54.784Z,18.36
2022-12-18T06:11:25.905Z,18.46
2022-12-18T06:13:59.310Z,18.45
2022-12-18T06:16:28.944Z,18.21
2022-12-18T06:19:02.367Z,18.04
2022-12-18T06:21:30.497Z,18.49
2022-12-18T06:23:59.590Z,18.44
2022-12-18T06:26:28.618Z,18.57
2022-12-18T06:28:58.598Z,18.58
2022-12-18T06:31:27.300Z,18.36
2022-12-18T06:33:55.319Z,18.59
2022-12-18T06:36:23.365Z,18.26
2022-12-18T06:38:51.072Z,18.44
2022-12-18T06:41:21.987Z,18.51
2022-12-18T06:43:50.255Z,18.28
2022-12-18T06:46:18.041Z,18.54
2022-12-18T06:48:50.080Z,18.38
2022-12-18T06:51:19.838Z,18.22
2022-12-18T06:53:47.938Z,18.40
2022-12-18T06:56:15.812Z,18.39
2022-12-18T06:58:43.834Z,18.63
2022-12-18T07:01:13.607Z,18.64
2022-12-18T07:03:43.005Z,18.68
2022-12-18T07:06:19.883Z,18.58
2022-12-18T07:08:48.964Z,18.68
2022-12-18T07:11:17.873Z,18.65
2022-12-18T07:13:46.704Z,18.65
2022-12-18T07:16:24.779Z,18.75
2022-12-18T07:18:55.818Z,18.71
2022-12-18T07:21:25.613Z,18.60
2022-12-18T07:23:53.892Z,18.85
2022-12-18T07:26:22.728Z,18.70
2022-12-18T07:28:51.027Z,18.78
2022-12-18T07:31:21.523Z,18.90
2022-12-18T07:33:50.837Z,18.63
2022-12-18T07:36:18.976Z,18.94
2022-12-18T07:38:50.734Z,18.61
2022-12-18T07:41:19.749Z,18.93
2022-12-18T07:43:48.415Z,18.92
2022-12-18T07:46:17.355Z,18.79
2022-12-18T07:48:49.301Z,18.93
2022-12-18T07:51:18.586Z,18.92
2022-12-18T07:53:46.323Z,18.83
2022-12-18T07:56:32.134Z,18.65
2022-12-18T07:59:00.238Z,18.43
2022-12-18T08:01:31.203Z,18.78
2022-12-18T08:03:59.843Z,18.89
2022-12-18T08:06:27.539Z,18.84
2022-12-18T08:08:57.036Z,18.84
2022-12-18T08:11:26.719Z,18.84
2022-12-18T08:13:55.281Z,18.83
2022-12-18T08:16:24.128Z,18.88
2022-12-18T08:18:54.055Z,19.18
2022-12-18T08:21:28.077Z,19.35
2022-12-18T08:23:58.276Z,19.21
2022-12-18T08:26:29.825Z,19.38
2022-12-18T08:28:59.050Z,19.26
2022-12-18T08:31:28.608Z,18.69
2022-12-18T08:33:57.847Z,19.15
2022-12-18T08:36:26.453Z,19.17
2022-12-18T08:38:55.299Z,19.17
2022-12-18T08:41:23.800Z,19.21
2022-12-18T08:44:10.742Z,19.16
2022-12-18T08:46:41.487Z,19.01
2022-12-18T08:49:11.021Z,19.38
2022-12-18T08:51:40.299Z,19.10
2022-12-18T08:54:10.641Z,19.39
2022-12-18T08:56:38.639Z,19.32
2022-12-18T08:59:06.475Z,19.40
2022-12-18T09:01:34.406Z,19.61
2022-12-18T09:04:03.420Z,19.74
2022-12-18T09:06:32.270Z,19.58
2022-12-18T09:09:01.133Z,19.46
2022-12-18T09:11:30.802Z,19.75
2022-12-18T09:14:00.537Z,19.76
2022-12-18T09:16:32.403Z,19.74
2022-12-18T09:19:01.515Z,19.47
2022-12-18T09:21:34.412Z,19.37
2022-12-18T09:24:06.945Z,19.50
2022-12-18T09:26:37.765Z,19.76
2022-12-18T09:29:08.305Z,19.63
2022-12-18T09:31:37.341Z,19.36
2022-12-18T09:34:07.082Z,19.58
2022-12-18T09:36:35.378Z,19.73
2022-12-18T09:39:08.108Z,19.49
2022-12-18T09:41:44.747Z,19.73
2022-12-18T09:44:44.448Z,19.67
2022-12-18T09:47:19.336Z,19.69
2022-12-18T09:49:50.727Z,19.59
2022-12-18T09:52:48.516Z,19.67
2022-12-18T09:55:38.855Z,19.68
2022-12-18T09:58:23.217Z,19.51
2022-12-18T10:00:53.480Z,19.59
2022-12-18T10:03:22.173Z,19.55
2022-12-18T10:06:09.324Z,19.67
2022-12-18T10:08:44.465Z,19.72
2022-12-18T10:11:30.424Z,19.69
2022-12-18T10:14:31.778Z,19.73
2022-12-18T10:16:59.386Z,19.75
2022-12-18T10:19:50.519Z,19.74
2022-12-18T10:22:53.737Z,19.49
2022-12-18T10:25:32.508Z,19.56
2022-12-18T10:28:11.719Z,19.81
2022-12-18T10:30:41.356Z,19.63
2022-12-18T10:33:16.576Z,19.88
2022-12-18T10:35:46.568Z,19.57
2022-12-18T10:38:14.161Z,19.88
2022-12-18T10:40:58.212Z,19.83
2022-12-18T10:43:30.694Z,19.34
2022-12-18T10:46:04.760Z,19.81
2022-12-18T10:48:34.417Z,19.80
2022-12-18T10:51:10.911Z,19.03
2022-12-18T10:53:44.003Z,19.71
2022-12-18T10:56:13.201Z,19.55
2022-12-18T10:58:41.717Z,19.51
2022-12-18T11:01:14.435Z,19.81
2022-12-18T11:04:03.365Z,19.63
2022-12-18T11:06:33.893Z,19.79
2022-12-18T11:09:12.301Z,19.68
2022-12-18T11:11:41.118Z,19.74
2022-12-18T11:14:24.254Z,19.50
2022-12-18T11:19:42.557Z,19.78
2022-12-18T11:22:33.447Z,19.82
2022-12-18T11:25:32.480Z,19.83
2022-12-18T11:28:06.977Z,19.83
2022-12-18T11:30:37.991Z,19.83
2022-12-18T11:33:05.767Z,19.85
2022-12-18T11:35:50.153Z,19.89
2022-12-18T11:38:27.312Z,19.64
2022-12-18T11:41:07.231Z,19.90
2022-12-18T11:43:51.245Z,19.64
2022-12-18T11:46:28.568Z,19.58
2022-12-18T11:49:11.650Z,19.87
2022-12-18T11:52:19.764Z,20.06
2022-12-18T11:54:51.449Z,20.05
2022-12-18T11:57:47.248Z,20.19
2022-12-18T12:00:21.174Z,20.33
2022-12-18T12:03:19.819Z,20.34
2022-12-18T12:06:02.258Z,20.24
2022-12-18T12:08:48.768Z,20.28
2022-12-18T12:11:34.060Z,20.27
2022-12-18T12:14:01.872Z,20.25
2022-12-18T12:17:14.551Z,20.25
2022-12-18T12:19:48.584Z,20.21
2022-12-18T12:22:58.008Z,20.21
2022-12-18T12:25:39.282Z,20.21
2022-12-18T12:28:19.405Z,20.16
2022-12-18T12:30:57.520Z,20.21
2022-12-18T12:33:44.361Z,20.23
2022-12-18T12:36:21.400Z,20.29
2022-12-18T12:38:58.565Z,20.21
2022-12-18T12:41:47.022Z,20.31
2022-12-18T12:44:23.273Z,20.02
2022-12-18T12:46:56.286Z,20.31
2022-12-18T12:49:29.090Z,20.27
2022-12-18T12:52:08.820Z,20.26
2022-12-18T12:54:37.771Z,20.23
2022-12-18T12:57:44.119Z,20.44
2022-12-18T13:00:18.098Z,19.95
2022-12-18T13:03:14.325Z,20.53
2022-12-18T13:05:47.851Z,20.40
2022-12-18T13:08:33.988Z,20.48
2022-12-18T13:11:22.413Z,20.42
2022-12-18T13:13:57.959Z,20.31
2022-12-18T13:16:28.608Z,20.48
2022-12-18T13:18:59.984Z,20.32
2022-12-18T13:21:34.723Z,20.52
2022-12-18T13:24:26.767Z,20.55
2022-12-18T13:26:55.332Z,20.29
2022-12-18T13:29:45.559Z,20.41
2022-12-18T13:32:26.639Z,20.37
2022-12-18T13:35:35.485Z,20.40
2022-12-18T13:38:27.231Z,20.38
2022-12-18T13:40:56.907Z,20.47
2022-12-18T13:43:46.519Z,20.35
2022-12-18T13:46:48.727Z,20.26
2022-12-18T13:49:45.539Z,20.40
2022-12-18T13:52:23.910Z,20.17
2022-12-18T13:55:19.393Z,20.43
2022-12-18T13:57:47.721Z,20.21
2022-12-18T14:00:26.464Z,20.43
2022-12-18T14:02:54.356Z,20.12
2022-12-18T14:05:23.819Z,20.36
2022-12-18T14:07:53.097Z,20.42
2022-12-18T14:13:12.561Z,20.47
2022-12-18T14:15:43.943Z,20.44
2022-12-18T14:18:30.689Z,20.55
2022-12-18T14:21:01.048Z,20.40
2022-12-18T14:23:41.375Z,20.52
2022-12-18T14:26:30.469Z,20.51
2022-12-18T14:29:21.665Z,20.45
2022-12-18T14:32:17.022Z,20.03
2022-12-18T14:34:51.127Z,20.37
2022-12-18T14:37:24.227Z,20.39
2022-12-18T14:40:10.548Z,20.58
2022-12-18T14:42:39.585Z,20.47
2022-12-18T14:45:40.984Z,20.64
2022-12-18T14:48:21.571Z,20.18
2022-12-18T14:51:20.210Z,20.56
2022-12-18T14:54:15.509Z,20.59
2022-12-18T14:56:49.884Z,20.59
2022-12-18T14:59:25.198Z,20.57
2022-12-18T15:02:09.855Z,20.56
2022-12-18T15:04:43.006Z,20.46
2022-12-18T15:07:12.508Z,20.45
2022-12-18T15:09:43.001Z,20.46
2022-12-18T15:12:35.425Z,20.17
2022-12-18T15:15:05.408Z,20.33
2022-12-18T15:17:34.270Z,20.24
2022-12-18T15:20:10.381Z,20.07
2022-12-18T15:22:39.733Z,20.26
2022-12-18T15:25:37.905Z,20.34
2022-12-18T15:28:19.865Z,20.12
2022-12-18T15:31:05.526Z,20.10
2022-12-18T15:33:55.380Z,20.19
2022-12-18T15:36:26.334Z,20.16
2022-12-18T15:39:04.676Z,20.15
2022-12-18T15:41:38.206Z,20.05
2022-12-18T15:44:26.534Z,20.17
2022-12-18T15:46:54.350Z,19.84
2022-12-18T15:49:22.168Z,20.17
2022-12-18T15:51:55.828Z,20.11
2022-12-18T15:54:44.007Z,20.09
2022-12-18T15:57:24.814Z,20.17
2022-12-18T15:59:54.534Z,20.04
2022-12-18T16:02:24.334Z,20.09
2022-12-18T16:04:53.406Z,20.13
2022-12-18T16:07:25.189Z,20.12
2022-12-18T16:09:53.688Z,19.51
2022-12-18T16:12:23.748Z,19.67
2022-12-18T16:14:52.114Z,19.84
2022-12-18T16:17:20.140Z,19.86
2022-12-18T16:19:48.025Z,19.49
2022-12-18T16:22:24.564Z,20.01
2022-12-18T16:24:54.054Z,20.00
2022-12-18T16:27:22.838Z,19.96
2022-12-18T16:29:51.680Z,19.86
2022-12-18T16:32:22.009Z,19.80
2022-12-18T16:34:51.369Z,19.71
2022-12-18T16:37:19.380Z,19.99
2022-12-18T16:39:47.571Z,19.92
2022-12-18T16:42:20.720Z,19.69
2022-12-18T16:44:50.665Z,19.92
2022-12-18T16:47:19.135Z,19.96
2022-12-18T16:49:47.162Z,19.58
2022-12-18T16:52:15.386Z,19.80
2022-12-18T16:54:43.257Z,19.84
2022-12-18T16:57:16.010Z,19.95
2022-12-18T16:59:44.023Z,19.73
2022-12-18T17:02:24.591Z,19.71
2022-12-18T17:04:57.303Z,19.74
2022-12-18T17:07:26.295Z,19.72
2022-12-18T17:09:54.437Z,19.50
2022-12-18T17:12:24.127Z,19.86
2022-12-18T17:14:51.916Z,19.48
2022-12-18T17:17:21.947Z,19.78
2022-12-18T17:19:51.732Z,19.58
2022-12-18T17:22:20.380Z,19.84
2022-12-18T17:24:48.341Z,19.63
2022-12-18T17:27:16.446Z,19.61
2022-12-18T17:29:47.735Z,19.80
2022-12-18T17:32:17.382Z,19.50
2022-12-18T17:34:45.423Z,19.83
2022-12-18T17:37:13.378Z,19.15
2022-12-18T17:39:42.165Z,19.81
2022-12-18T17:42:14.784Z,19.73
2022-12-18T17:44:44.359Z,19.61
2022-12-18T17:47:13.820Z,19.52
2022-12-18T17:49:41.657Z,19.80
2022-12-18T17:52:09.910Z,19.89
2022-12-18T17:54:39.998Z,19.51
2022-12-18T17:57:10.552Z,19.72
2022-12-18T17:59:38.682Z,19.80
2022-12-18T18:02:06.700Z,19.78
2022-12-18T18:04:36.145Z,19.88
2022-12-18T18:07:03.930Z,19.69
2022-12-18T18:09:33.348Z,19.39
2022-12-18T18:12:19.804Z,19.42
2022-12-18T18:14:47.888Z,19.58
2022-12-18T18:17:16.007Z,19.79
2022-12-18T18:19:46.773Z,19.70
2022-12-18T18:22:17.829Z,19.27
2022-12-18T18:24:47.116Z,19.53
2022-12-18T18:27:15.216Z,19.78
2022-12-18T18:29:43.438Z,19.87
2022-12-18T18:32:11.328Z,19.41
2022-12-18T18:34:41.281Z,19.73
2022-12-18T18:37:10.510Z,19.90
2022-12-18T18:39:38.580Z,19.74
2022-12-18T18:42:06.645Z,19.84
2022-12-18T18:44:34.427Z,19.71
2022-12-18T18:47:02.836Z,19.78
2022-12-18T18:49:34.888Z,19.60
2022-12-18T18:52:03.926Z,19.66
2022-12-18T18:54:31.768Z,19.62
2022-12-18T18:59:47.458Z,19.96
2022-12-18T19:02:15.923Z,19.97
2022-12-18T19:04:46.517Z,19.99
2022-12-18T19:07:24.327Z,19.82
2022-12-18T19:10:04.288Z,19.91
2022-12-18T19:12:52.686Z,19.62
2022-12-18T19:15:22.926Z,19.60
2022-12-18T19:17:50.961Z,19.86
2022-12-18T19:20:19.594Z,19.88
2022-12-18T19:22:55.217Z,19.83
2022-12-18T19:25:40.678Z,19.94
2022-12-18T19:28:15.344Z,19.71
2022-12-18T19:30:56.343Z,19.94
2022-12-18T19:33:42.468Z,20.03
2022-12-18T19:36:12.429Z,19.76
2022-12-18T19:38:44.946Z,20.04
2022-12-18T19:41:15.726Z,19.81
2022-12-18T19:43:45.543Z,20.02
2022-12-18T19:46:16.330Z,19.46
2022-12-18T19:48:46.778Z,19.94
2022-12-18T19:51:18.185Z,19.92
2022-12-18T19:53:46.996Z,19.87
2022-12-18T19:56:21.331Z,19.85
2022-12-18T19:58:49.696Z,19.91
2022-12-18T20:01:19.021Z,19.63
2022-12-18T20:03:52.652Z,19.88
2022-12-18T20:06:31.604Z,19.78
2022-12-18T20:09:02.301Z,19.86
2022-12-18T20:11:31.209Z,19.88
2022-12-18T20:13:59.167Z,19.74
2022-12-18T20:16:27.095Z,19.72
2022-12-18T20:18:57.840Z,19.87
2022-12-18T20:21:26.439Z,19.72
2022-12-18T20:23:56.003Z,19.89
2022-12-18T20:26:25.012Z,19.25
2022-12-18T20:28:54.388Z,19.82
2022-12-18T20:31:23.025Z,19.72
2022-12-18T20:33:52.175Z,19.84
2022-12-18T20:36:23.367Z,19.86
2022-12-18T20:38:57.238Z,19.84
2022-12-18T20:41:35.035Z,19.84
2022-12-18T20:44:23.134Z,19.80
2022-12-18T20:46:57.028Z,19.81
2022-12-18T20:49:27.471Z,19.75
2022-12-18T20:51:57.335Z,19.74
2022-12-18T20:54:27.387Z,19.84
2022-12-18T20:56:58.345Z,19.96
2022-12-18T20:59:29.183Z,20.01
2022-12-18T21:01:57.174Z,19.65
2022-12-18T21:04:26.450Z,19.91
2022-12-18T21:07:02.103Z,19.89
2022-12-18T21:09:37.721Z,19.80
2022-12-18T21:12:40.317Z,19.69
2022-12-18T21:15:12.040Z,19.86
2022-12-18T21:17:44.605Z,19.60
2022-12-18T21:20:17.521Z,19.80
2022-12-18T21:22:47.150Z,19.74
2022-12-18T21:25:15.236Z,19.96
2022-12-18T21:27:43.169Z,19.58
2022-12-18T21:30:15.116Z,19.94
2022-12-18T21:32:44.264Z,19.63
2022-12-18T21:35:12.082Z,19.66
2022-12-18T21:37:40.082Z,19.60
2022-12-18T21:40:08.814Z,19.75
2022-12-18T21:42:55.265Z,19.21
2022-12-18T21:45:23.106Z,19.58
2022-12-18T21:47:51.012Z,19.74
2022-12-18T21:50:18.855Z,19.55
2022-12-18T21:52:46.579Z,19.39
2022-12-18T21:55:14.292Z,19.76
2022-12-18T21:57:42.187Z,19.55
2022-12-18T22:00:18.174Z,19.41
2022-12-18T22:02:47.835Z,19.73
2022-12-18T22:05:17.324Z,19.38
2022-12-18T22:07:46.265Z,19.33
2022-12-18T22:10:14.127Z,19.56
2022-12-18T22:12:43.940Z,19.65
2022-12-18T22:15:18.313Z,19.12
2022-12-18T22:17:58.711Z,19.62
2022-12-18T22:20:30.037Z,19.60
2022-12-18T22:22:58.460Z,19.46
2022-12-18T22:25:26.572Z,19.50
2022-12-18T22:28:12.851Z,19.39
2022-12-18T22:30:40.784Z,19.54
2022-12-18T22:33:08.651Z,19.51
2022-12-18T22:35:36.768Z,19.16
2022-12-18T22:38:05.022Z,19.43
2022-12-18T22:40:32.718Z,19.41
2022-12-18T22:43:00.410Z,19.49
2022-12-18T22:45:28.242Z,19.24
2022-12-18T22:47:56.284Z,19.50
2022-12-18T22:50:24.180Z,19.32
2022-12-18T22:52:51.967Z,19.25
2022-12-18T22:55:19.960Z,19.46
2022-12-18T22:57:48.698Z,19.51
2022-12-18T23:00:19.886Z,19.49
2022-12-18T23:03:00.351Z,19.04
2022-12-18T23:05:30.363Z,19.41
2022-12-18T23:07:59.257Z,19.40
2022-12-18T23:10:27.770Z,19.44
2022-12-18T23:12:55.611Z,19.31
2022-12-18T23:15:27.854Z,19.22
2022-12-18T23:17:58.210Z,19.21
2022-12-18T23:20:27.530Z,19.04
2022-12-18T23:22:55.466Z,19.32
2022-12-18T23:25:25.089Z,19.39
2022-12-18T23:27:53.045Z,19.34
2022-12-18T23:30:21.161Z,19.41
2022-12-18T23:32:48.911Z,19.40
2022-12-18T23:35:17.626Z,19.33
2022-12-18T23:37:58.796Z,19.20
2022-12-18T23:40:29.015Z,19.43
2022-12-18T23:42:57.032Z,19.02
2022-12-18T23:45:24.797Z,19.16
2022-12-18T23:47:52.444Z,19.42
2022-12-18T23:50:23.779Z,19.43
2022-12-18T23:52:57.450Z,18.93
2022-12-18T23:55:32.968Z,19.16
2022-12-18T23:58:00.777Z,19.23
